Aeroporto :
LOGIN :

Iscrizione | Disclaimer

   EN    FR    IT 

 










Sommario :    VFR   VFR Marginale   IFR   IFR Intensivo   IFR Molto Intensivo
Visibilità : 
Base nubi : 
>= 8 km
>= 3000ft
5 / 8 km
1000 / 3000 ft
1500m / 5 km
500 / 1000 ft
800 / 1500m
200 / 500 ft
< 800m
< 200 ft
Simboli :   Temporali  Nebbia  Neve Forte  Precipitazioni Forti  Vento > 20 kt
SIGMETs :   Varie  Temporali  Ghiacco  Turbolenza  Onda orograficha  Ceneri Vulcaniche







- Altitudine del aeroporto : 74 ft
- Codice IATA : LRH
- Carte del aeroporto


LFBH - La Rochelle Ile de Ré

ULTIMO METAR :
  • 261630Z AUTO 04013KT CAVOK 14/02 Q1030 NOSIG

METARs OBSOLETI :
  • 261600Z AUTO 04014KT CAVOK 14/01 Q1030 NOSIG
  • 261530Z AUTO 03014KT CAVOK 14/02 Q1030 NOSIG
  • 261500Z AUTO 04015KT CAVOK 14/02 Q1030 NOSIG
  • 261430Z AUTO 04012KT 010V070 CAVOK 14/03 Q1031 NOSIG
  • 261400Z AUTO 04012KT 010V070 CAVOK 14/03 Q1031 NOSIG

TAF TAF LFBH
Valido dal 26 a 12 ore il 27 a 12 ore UTC


261100Z 2612/2712 04012KT CAVOK
ATIS : +33 5 46 00 13 92
Nessun NOTAM noto per questo aeroporto.
2 SIGMETs conosciuti per la FIR Bordeaux (LFBB) :
 
Turbolenza severa
LFBB SIGMET 5 VALID 261600/262000 LFPW
LFBB BORDEAUX FIR/UIR SEV TURB FCST WI N4245 E00230 - N4215 E00230 - N4230 E00145 - N4245 E00200 - N4245 E00230 SFC/FL070 STNR WKN=
Forte onda orograficha
LFBB SIGMET 4 VALID 261500/261700 LFPW
LFBB BORDEAUX FIR/UIR SEV MTW FCST WI N4245 E00230 - N4215 E00230 - N4245 E00015 - N4315 E00030 - N4245 E00230 FL300/380 STNR WKN=



MetMap, La meteo Aeronautica in un colpo d'occhio ! - Copyright ORBIFLY Dicembre 2007 - Disclaimer

ORBIFLY MET'MAP TEAM :

Programmazione e sviluppo : Alexandra Zaïnal
Concezione e sviluppo : Baudouin d'Aumeries
Co-Programmazione e sviluppo : Marc-Olivier Méhu
Supporto tecnico e logistico : Manuel Goepfert
Aiuto per la traduzione : Arnaldo La Scala

Contatto : metmap@orbifly.com




FONTI E CREDITI :

   NOAA